首页
METAR-TAF:

METAR-TAF

机场 :

Bogue_Field/MCALF

Swansboro, 北卡罗来纳州, 美国

纬度: 34-41-34N, 经度: 077-01-46W, 海拔: 6米

当前天气观测

该预报发布于59分钟前的17:57 UTC
风速4节,风向多变
温度 20°C
湿度 60%
气压 1021 hPa
多云层高于2300英尺

METAR: KNJM 181757Z AUTO VRB04KT BKN023 20/12 A3016 RMK AO2 SLP217 T02000122 10206 20078 58023 TSNO $

时间: 13:56 (18:56 UTC)


TAF: 丢失

超过4000个机场的气象观测和天气预报(METAR&TAF报告)。

可查询的气象台以黄色和红色小点在地图上表示。

将鼠标移到小点上方,可查看气象台名称。

然后点击查看天气观测和预报。

如需切换地图:点击带黑十字的绿色按钮放大地图;点击带横线的绿色按钮缩小地图;或者点击绿色箭头查看邻近地区的地图。


METAR-TAF: